createdAt,value
2023-02-25T00:04:29.974Z,-6.44
2023-02-25T00:09:32.741Z,-6.46
2023-02-25T00:14:35.428Z,-6.48
2023-02-25T00:19:38.167Z,-6.53
2023-02-25T00:24:40.811Z,-6.55
2023-02-25T00:29:43.685Z,-6.54
2023-02-25T00:34:46.921Z,-6.61
2023-02-25T00:39:49.651Z,-6.77
2023-02-25T00:44:52.344Z,-6.94
2023-02-25T00:49:54.984Z,-7.08
2023-02-25T00:54:57.678Z,-7.26
2023-02-25T01:00:00.505Z,-7.54
2023-02-25T01:05:03.854Z,-7.59
2023-02-25T01:10:08.864Z,-7.59
2023-02-25T01:15:12.316Z,-7.67
2023-02-25T01:20:20.168Z,-7.44
2023-02-25T01:25:23.063Z,-7.78
2023-02-25T01:30:25.854Z,-7.90
2023-02-25T01:35:28.518Z,-8.05
2023-02-25T01:40:31.307Z,-8.41
2023-02-25T01:45:44.358Z,-8.53
2023-02-25T01:50:52.908Z,-8.61
2023-02-25T01:55:56.863Z,-8.76
2023-02-25T02:00:59.692Z,-8.76
2023-02-25T02:06:39.078Z,-8.76
2023-02-25T02:11:43.289Z,-8.64
2023-02-25T02:16:59.623Z,-8.59
2023-02-25T02:22:35.711Z,-8.48
2023-02-25T02:27:53.348Z,-8.13
2023-02-25T02:33:10.513Z,-7.89
2023-02-25T02:38:27.996Z,-7.63
2023-02-25T02:43:41.802Z,-7.47
2023-02-25T02:48:56.627Z,-7.41
2023-02-25T02:54:07.486Z,-7.31
2023-02-25T02:59:26.148Z,-7.32
2023-02-25T03:04:31.794Z,-7.13
2023-02-25T03:09:50.069Z,-6.88
2023-02-25T03:14:53.068Z,-6.78
2023-02-25T03:20:18.451Z,-6.91
2023-02-25T03:25:29.781Z,-7.08
2023-02-25T03:30:49.567Z,-7.35
2023-02-25T03:35:55.481Z,-7.37
2023-02-25T03:41:08.551Z,-7.55
2023-02-25T03:46:16.046Z,-7.64
2023-02-25T03:51:22.444Z,-7.74
2023-02-25T03:56:26.020Z,-7.75
2023-02-25T04:01:30.960Z,-7.62
2023-02-25T04:06:33.828Z,-7.73
2023-02-25T04:11:37.198Z,-7.52
2023-02-25T04:16:40.112Z,-7.75
2023-02-25T04:21:47.337Z,-7.68
2023-02-25T04:26:50.048Z,-7.45
2023-02-25T04:31:53.145Z,-7.19
2023-02-25T04:36:56.042Z,-6.98
2023-02-25T04:41:59.071Z,-6.87
2023-02-25T04:47:01.837Z,-6.68
2023-02-25T04:52:04.645Z,-6.61
2023-02-25T04:57:08.292Z,-6.54
2023-02-25T05:02:11.399Z,-6.63
2023-02-25T05:07:14.073Z,-6.75
2023-02-25T05:12:16.747Z,-6.77
2023-02-25T05:17:19.567Z,-6.98
2023-02-25T05:22:23.252Z,-6.82
2023-02-25T05:27:26.106Z,-6.94
2023-02-25T05:32:31.698Z,-6.86
2023-02-25T05:37:34.811Z,-6.82
2023-02-25T05:42:38.295Z,-6.42
2023-02-25T05:47:41.003Z,-6.49
2023-02-25T05:52:43.922Z,-6.66
2023-02-25T05:57:46.591Z,-6.67
2023-02-25T06:02:49.412Z,-6.71
2023-02-25T06:07:52.204Z,-6.46
2023-02-25T06:12:54.892Z,-6.31
2023-02-25T06:17:57.686Z,-6.12
2023-02-25T06:23:00.356Z,-5.82
2023-02-25T06:28:04.022Z,-6.01
2023-02-25T06:33:06.708Z,-6.00
2023-02-25T06:38:09.701Z,-5.93
2023-02-25T06:43:12.481Z,-6.27
2023-02-25T06:48:15.383Z,-6.55
2023-02-25T06:53:18.103Z,-6.66
2023-02-25T06:58:20.852Z,-6.61
2023-02-25T07:03:23.628Z,-6.61
2023-02-25T07:08:26.369Z,-6.55
2023-02-25T07:13:29.079Z,-6.63
2023-02-25T07:18:31.655Z,-6.89
2023-02-25T07:23:36.753Z,-7.16
2023-02-25T07:28:40.175Z,-7.20
2023-02-25T07:33:43.080Z,-7.12
2023-02-25T07:38:47.187Z,-7.17
2023-02-25T07:43:49.960Z,-7.24
2023-02-25T07:48:54.971Z,-7.26
2023-02-25T07:54:03.817Z,-7.00
2023-02-25T07:59:06.548Z,-7.08
2023-02-25T08:04:10.718Z,-7.19
2023-02-25T08:09:14.231Z,-7.27
2023-02-25T08:14:16.950Z,-7.30
2023-02-25T08:19:19.659Z,-7.24
2023-02-25T08:24:23.020Z,-7.25
2023-02-25T08:29:26.196Z,-7.25
2023-02-25T08:34:28.932Z,-7.32
2023-02-25T08:39:31.784Z,-7.28
2023-02-25T08:44:34.439Z,-7.19
2023-02-25T08:49:39.350Z,-6.96
2023-02-25T08:54:42.084Z,-6.94
2023-02-25T08:59:44.710Z,-6.83
2023-02-25T09:04:47.462Z,-6.74
2023-02-25T09:09:50.181Z,-6.67
2023-02-25T09:14:52.906Z,-6.50
2023-02-25T09:19:55.816Z,-6.47
2023-02-25T09:24:58.523Z,-6.77
2023-02-25T09:30:01.437Z,-6.92
2023-02-25T09:35:07.919Z,-7.03
2023-02-25T09:40:11.874Z,-7.16
2023-02-25T09:45:18.273Z,-7.36
2023-02-25T09:50:27.707Z,-7.12
2023-02-25T09:55:39.692Z,-7.10
2023-02-25T10:01:06.458Z,-7.27
2023-02-25T10:06:21.655Z,-7.45
2023-02-25T10:11:36.480Z,-7.61
2023-02-25T10:16:51.109Z,-7.65
2023-02-25T10:22:02.855Z,-7.58
2023-02-25T10:27:24.846Z,-7.54
2023-02-25T10:32:31.493Z,-7.59
2023-02-25T10:37:39.802Z,-7.57
2023-02-25T10:42:47.628Z,-7.56
2023-02-25T10:48:04.565Z,-7.62
2023-02-25T10:53:18.026Z,-7.93
2023-02-25T10:58:44.829Z,-8.11
2023-02-25T11:03:47.662Z,-8.31
2023-02-25T11:08:51.455Z,-8.51
2023-02-25T11:14:03.133Z,-8.58
2023-02-25T11:19:23.364Z,-8.75
2023-02-25T11:24:35.522Z,-8.87
2023-02-25T11:29:41.198Z,-8.99
2023-02-25T11:34:50.533Z,-9.10
2023-02-25T11:39:55.438Z,-9.24
2023-02-25T11:45:03.599Z,-9.42
2023-02-25T11:50:18.645Z,-9.51
2023-02-25T11:55:42.781Z,-9.66
2023-02-25T12:00:55.509Z,-9.75
2023-02-25T12:06:13.523Z,-9.83
2023-02-25T12:11:24.354Z,-9.84
2023-02-25T12:16:46.719Z,-9.89
2023-02-25T12:22:15.121Z,-9.86
2023-02-25T12:27:34.428Z,-9.87
2023-02-25T12:33:08.324Z,-9.88
2023-02-25T12:38:52.244Z,-9.88
2023-02-25T12:44:22.312Z,-10.17
2023-02-25T12:49:43.043Z,-10.12
2023-02-25T12:54:51.620Z,-10.10
2023-02-25T13:00:10.693Z,-10.37
2023-02-25T13:05:42.379Z,-10.08
2023-02-25T13:11:08.340Z,-10.02
2023-02-25T13:16:28.675Z,-10.13
2023-02-25T13:21:43.745Z,-10.04
2023-02-25T13:27:22.553Z,-10.14
2023-02-25T13:32:26.957Z,-10.13
2023-02-25T13:37:44.533Z,-10.20
2023-02-25T13:43:12.163Z,-10.23
2023-02-25T13:48:18.330Z,-10.26
2023-02-25T13:53:36.174Z,-10.38
2023-02-25T13:59:00.345Z,-10.49
2023-02-25T14:04:05.872Z,-10.57
2023-02-25T14:09:46.596Z,-10.62
2023-02-25T14:15:20.473Z,-10.74
2023-02-25T14:20:29.428Z,-10.87
2023-02-25T14:25:56.469Z,-10.96
2023-02-25T14:31:11.525Z,-10.98
2023-02-25T14:36:37.458Z,-11.00
2023-02-25T14:42:03.673Z,-11.09
2023-02-25T14:47:19.732Z,-11.30
2023-02-25T14:52:41.155Z,-11.34
2023-02-25T14:58:09.014Z,-11.43
2023-02-25T15:03:17.403Z,-11.54
2023-02-25T15:08:51.431Z,-11.56
2023-02-25T15:14:19.270Z,-11.61
2023-02-25T15:20:00.369Z,-11.65
2023-02-25T15:25:21.916Z,-11.69
2023-02-25T15:30:27.335Z,-11.71
2023-02-25T15:35:35.944Z,-11.74
2023-02-25T15:40:45.409Z,-11.72
2023-02-25T15:45:55.902Z,-11.74
2023-02-25T15:51:00.899Z,-11.81
2023-02-25T15:56:06.951Z,-11.58
2023-02-25T16:01:39.859Z,-11.51
2023-02-25T16:06:42.854Z,-11.45
2023-02-25T16:11:56.379Z,-11.45
2023-02-25T16:17:24.170Z,-11.37
2023-02-25T16:22:28.807Z,-11.40
2023-02-25T16:27:43.662Z,-11.34
2023-02-25T16:33:04.561Z,-11.33
2023-02-25T16:38:16.033Z,-11.28
2023-02-25T16:43:31.074Z,-11.25
2023-02-25T16:49:11.749Z,-11.17
2023-02-25T16:54:18.106Z,-11.11
2023-02-25T16:59:22.722Z,-11.17
2023-02-25T17:04:30.172Z,-11.18
2023-02-25T17:09:32.990Z,-11.29
2023-02-25T17:14:36.069Z,-11.47
2023-02-25T17:19:38.902Z,-11.60
2023-02-25T17:24:41.818Z,-12.01
2023-02-25T17:29:46.142Z,-11.93
2023-02-25T17:34:49.899Z,-12.08
2023-02-25T17:39:52.757Z,-12.18
2023-02-25T17:44:55.526Z,-12.29
2023-02-25T17:50:00.533Z,-12.44
2023-02-25T17:55:06.545Z,-12.72
2023-02-25T18:00:36.244Z,-12.55
2023-02-25T18:05:51.610Z,-12.72
2023-02-25T18:11:16.301Z,-12.78
2023-02-25T18:16:30.897Z,-12.85
2023-02-25T18:21:40.308Z,-12.91
2023-02-25T18:27:19.899Z,-12.98
2023-02-25T18:32:25.118Z,-13.07
2023-02-25T18:37:29.083Z,-13.21
2023-02-25T18:42:31.622Z,-13.29
2023-02-25T18:47:34.302Z,-13.32
2023-02-25T18:52:37.984Z,-13.37
2023-02-25T18:57:40.754Z,-13.39
2023-02-25T19:02:52.241Z,-13.43
2023-02-25T19:07:55.401Z,-13.50
2023-02-25T19:13:08.892Z,-13.61
2023-02-25T19:18:15.958Z,-13.68
2023-02-25T19:23:19.877Z,-13.77
2023-02-25T19:28:22.533Z,-13.81
2023-02-25T19:33:25.243Z,-13.79
2023-02-25T19:38:28.047Z,-13.83
2023-02-25T19:43:31.893Z,-13.90
2023-02-25T19:48:34.736Z,-13.87
2023-02-25T19:53:37.831Z,-14.02
2023-02-25T19:58:40.584Z,-14.06
2023-02-25T20:03:43.593Z,-14.12
2023-02-25T20:08:52.711Z,-14.20
2023-02-25T20:13:55.477Z,-14.19
2023-02-25T20:18:58.362Z,-14.21
2023-02-25T20:24:01.567Z,-14.22
2023-02-25T20:29:04.973Z,-14.30
2023-02-25T20:34:07.796Z,-14.40
2023-02-25T20:39:25.858Z,-14.36
2023-02-25T20:44:28.787Z,-14.34
2023-02-25T20:49:31.763Z,-14.43
2023-02-25T20:54:34.512Z,-14.51
2023-02-25T20:59:37.239Z,-14.61
2023-02-25T21:04:39.939Z,-14.60
2023-02-25T21:09:42.705Z,-14.53
2023-02-25T21:14:45.501Z,-14.62
2023-02-25T21:19:48.147Z,-14.62
2023-02-25T21:24:50.866Z,-14.84
2023-02-25T21:29:53.626Z,-14.69
2023-02-25T21:34:56.421Z,-14.73
2023-02-25T21:39:59.127Z,-14.75
2023-02-25T21:45:02.173Z,-14.81
2023-02-25T21:50:06.906Z,-14.93
2023-02-25T21:55:10.229Z,-15.18
2023-02-25T22:00:14.663Z,-14.99
2023-02-25T22:05:17.619Z,-15.06
2023-02-25T22:10:21.372Z,-15.08
2023-02-25T22:15:24.863Z,-15.18
2023-02-25T22:20:27.573Z,-15.10
2023-02-25T22:25:33.138Z,-15.11
2023-02-25T22:30:35.853Z,-15.00
2023-02-25T22:35:38.910Z,-14.98
2023-02-25T22:40:42.631Z,-14.93
2023-02-25T22:45:45.590Z,-14.89
2023-02-25T22:50:50.973Z,-14.85
2023-02-25T22:55:53.569Z,-14.88
2023-02-25T23:00:56.500Z,-14.91
2023-02-25T23:05:59.237Z,-14.98
2023-02-25T23:11:31.667Z,-15.02
2023-02-25T23:16:37.440Z,-15.11
2023-02-25T23:21:40.318Z,-15.10
2023-02-25T23:26:44.083Z,-15.19
2023-02-25T23:31:48.764Z,-15.22
2023-02-25T23:36:55.717Z,-15.33
2023-02-25T23:41:58.454Z,-15.34
2023-02-25T23:47:01.177Z,-15.29
2023-02-25T23:52:04.322Z,-15.35
2023-02-25T23:57:07.097Z,-15.46
